Time;durP1;ratioP1;P1;durP2;ratioP2;P2;SDS_P1;SDS_P2;PMS_P1;PMS_P2;Temp;Humidity;BMP_temperature;BMP_pressure;BME280_temperature;BME280_humidity;BME280_pressure;Samples;Min_cycle;Max_cycle;Signal;HPM_P1;HPM_P2
2022/03/29 00:00:51;;;;;;;12.80;8.97;;;12.60;44.50;;;;;;7369530;19;20742;-40
2022/03/29 00:03:23;;;;;;;12.17;7.77;;;12.50;44.80;;;;;;7364655;19;20979;-40
2022/03/29 00:05:55;;;;;;;13.67;8.50;;;12.40;44.60;;;;;;7372624;19;20379;-40
2022/03/29 00:08:27;;;;;;;11.60;7.57;;;12.40;44.50;;;;;;7362211;19;20412;-40
2022/03/29 00:10:57;;;;;;;11.40;7.20;;;12.50;44.50;;;;;;7372869;19;20363;-40
2022/03/29 00:13:31;;;;;;;12.60;8.63;;;12.50;44.50;;;;;;7367810;19;20482;-40
2022/03/29 00:16:00;;;;;;;15.57;9.20;;;12.50;44.50;;;;;;7361631;19;20392;-40
2022/03/29 00:18:51;;;;;;;14.80;8.60;;;12.40;44.40;;;;;;7369755;19;20743;-40
2022/03/29 00:21:39;;;;;;;16.27;8.87;;;12.30;44.40;;;;;;7369895;19;20386;-40
2022/03/29 00:24:18;;;;;;;9.90;6.30;;;12.30;44.50;;;;;;7364388;19;20368;-40
2022/03/29 00:26:47;;;;;;;10.03;7.33;;;12.30;44.70;;;;;;7369416;19;20414;-40
2022/03/29 00:29:19;;;;;;;9.57;6.83;;;12.30;44.70;;;;;;7371577;19;20413;-40
2022/03/29 00:31:48;;;;;;;12.23;7.70;;;12.30;44.70;;;;;;7365899;19;20384;-40
2022/03/29 00:34:23;;;;;;;11.40;7.40;;;12.40;44.80;;;;;;7372341;19;20418;-40
2022/03/29 00:36:54;;;;;;;12.13;7.10;;;12.30;44.90;;;;;;7372080;19;21008;-40
2022/03/29 00:39:24;;;;;;;11.40;7.63;;;12.30;45.20;;;;;;7365936;19;20491;-40
2022/03/29 00:41:56;;;;;;;13.03;7.43;;;12.30;45.30;;;;;;7374245;19;20368;-40
2022/03/29 00:44:33;;;;;;;10.10;6.70;;;12.30;45.30;;;;;;7364145;19;21037;-40
2022/03/29 00:47:06;;;;;;;12.30;8.00;;;12.20;45.40;;;;;;7376145;19;20426;-40
2022/03/29 00:49:38;;;;;;;13.50;8.50;;;12.20;45.70;;;;;;7372964;19;20362;-38
2022/03/29 00:52:11;;;;;;;9.80;7.00;;;12.10;45.80;;;;;;7379430;19;20362;-38
2022/03/29 00:54:43;;;;;;;14.37;7.33;;;12.00;46.00;;;;;;7375104;19;20419;-37
2022/03/29 00:57:14;;;;;;;13.67;8.80;;;12.10;46.20;;;;;;7376500;19;20358;-38
2022/03/29 00:59:46;;;;;;;11.00;7.27;;;12.10;46.30;;;;;;7375789;19;20435;-38
2022/03/29 01:02:17;;;;;;;9.67;6.87;;;12.10;46.40;;;;;;7364287;19;20448;-37
2022/03/29 01:04:52;;;;;;;14.97;7.80;;;12.00;46.30;;;;;;7381509;19;20400;-37
2022/03/29 01:07:21;;;;;;;12.87;8.37;;;12.00;46.50;;;;;;7375627;19;20707;-37
2022/03/29 01:09:51;;;;;;;11.40;7.30;;;12.00;46.60;;;;;;7369870;19;20466;-37
2022/03/29 01:12:24;;;;;;;13.37;7.40;;;11.90;46.80;;;;;;7379898;19;20497;-37
2022/03/29 01:14:54;;;;;;;9.73;7.37;;;11.80;47.10;;;;;;7375244;19;20372;-38
2022/03/29 01:20:11;;;;;;;12.13;8.57;;;11.90;47.20;;;;;;7374827;19;20368;-39
2022/03/29 01:22:48;;;;;;;12.80;7.87;;;11.90;47.30;;;;;;7373927;19;20412;-40
2022/03/29 01:25:21;;;;;;;10.77;7.03;;;11.90;47.30;;;;;;7371669;19;20412;-40
2022/03/29 01:27:53;;;;;;;14.17;7.83;;;11.90;47.10;;;;;;7362519;19;20783;-40
2022/03/29 01:30:25;;;;;;;10.17;7.30;;;11.90;46.90;;;;;;7365738;19;24466;-40
2022/03/29 01:32:56;;;;;;;13.80;7.87;;;11.90;47.00;;;;;;7378635;19;20371;-39
2022/03/29 01:35:27;;;;;;;18.57;7.50;;;11.80;47.10;;;;;;7376396;19;20385;-40
2022/03/29 01:37:59;;;;;;;10.23;7.17;;;11.90;47.20;;;;;;7375436;19;20387;-40
2022/03/29 01:40:31;;;;;;;11.30;7.07;;;11.80;47.30;;;;;;7371496;19;20834;-39
2022/03/29 01:43:04;;;;;;;10.90;6.73;;;11.70;47.20;;;;;;7369023;19;20362;-39
2022/03/29 01:45:34;;;;;;;10.03;7.50;;;11.80;47.80;;;;;;7372926;19;20359;-39
2022/03/29 01:48:04;;;;;;;10.63;7.30;;;11.70;47.30;;;;;;7380122;19;20396;-39
2022/03/29 01:50:36;;;;;;;12.33;7.07;;;11.70;47.10;;;;;;7370063;19;20365;-37
2022/03/29 01:53:08;;;;;;;11.90;7.00;;;11.70;46.70;;;;;;7377534;19;20923;-38
2022/03/29 01:55:38;;;;;;;9.43;7.10;;;11.80;46.60;;;;;;7365491;19;20360;-38
2022/03/29 01:58:10;;;;;;;9.90;6.33;;;11.80;46.40;;;;;;7373358;19;20952;-37
2022/03/29 02:00:41;;;;;;;8.63;6.63;;;11.70;46.60;;;;;;7368349;19;20926;-38
2022/03/29 02:03:11;;;;;;;11.37;6.80;;;11.70;46.50;;;;;;7383416;19;21022;-37
2022/03/29 02:05:41;;;;;;;8.30;7.50;;;11.80;46.60;;;;;;7374965;19;20922;-38
2022/03/29 02:08:13;;;;;;;10.70;6.40;;;11.80;46.50;;;;;;7373476;19;20953;-37
2022/03/29 02:10:43;;;;;;;15.63;7.10;;;11.70;46.50;;;;;;7373506;19;20363;-38
2022/03/29 02:13:13;;;;;;;11.47;6.83;;;11.70;46.40;;;;;;7375268;19;20372;-37
2022/03/29 02:15:43;;;;;;;11.60;7.17;;;11.80;46.60;;;;;;7375844;19;20396;-38
2022/03/29 02:18:13;;;;;;;12.10;7.70;;;11.80;46.40;;;;;;7371438;19;20798;-37
2022/03/29 02:20:43;;;;;;;11.60;7.77;;;11.80;46.10;;;;;;7378316;19;20411;-38
2022/03/29 02:23:17;;;;;;;15.20;7.40;;;11.80;46.30;;;;;;7376733;19;20351;-38
2022/03/29 02:25:49;;;;;;;12.73;6.90;;;11.90;46.20;;;;;;7368577;19;20382;-38
2022/03/29 02:28:21;;;;;;;10.17;7.10;;;11.80;46.30;;;;;;7369580;19;20416;-37
2022/03/29 02:30:53;;;;;;;14.87;8.10;;;11.80;46.30;;;;;;7372131;19;20957;-38
2022/03/29 02:33:24;;;;;;;13.83;7.00;;;11.80;46.40;;;;;;7372272;19;21337;-37
2022/03/29 02:35:54;;;;;;;10.40;7.13;;;11.70;46.50;;;;;;7376331;19;20423;-38
2022/03/29 02:38:26;;;;;;;14.40;8.07;;;11.60;46.60;;;;;;7370197;19;20399;-37
2022/03/29 02:40:58;;;;;;;11.37;8.03;;;11.60;46.80;;;;;;7376665;19;20359;-37
2022/03/29 02:43:30;;;;;;;10.50;6.80;;;11.60;46.70;;;;;;7369447;19;20356;-37
2022/03/29 02:46:00;;;;;;;15.33;7.83;;;11.70;46.00;;;;;;7373742;19;20348;-38
2022/03/29 02:48:30;;;;;;;9.80;6.93;;;11.70;46.10;;;;;;7374205;19;20394;-38
2022/03/29 02:50:59;;;;;;;12.20;7.63;;;11.70;46.00;;;;;;7372482;19;20387;-38
2022/03/29 02:53:32;;;;;;;10.00;6.70;;;11.80;45.70;;;;;;7375240;19;20827;-38
2022/03/29 02:56:02;;;;;;;9.70;6.60;;;11.80;45.60;;;;;;7369284;19;20376;-38
2022/03/29 02:58:31;;;;;;;12.73;7.33;;;11.80;45.80;;;;;;7368123;19;20424;-38
2022/03/29 03:01:01;;;;;;;9.87;7.20;;;11.80;45.90;;;;;;7366834;19;21436;-40
2022/03/29 03:03:31;;;;;;;10.03;7.17;;;11.70;45.70;;;;;;7372521;19;20388;-40
2022/03/29 03:06:01;;;;;;;10.20;8.80;;;11.80;45.80;;;;;;7369938;19;20360;-40
2022/03/29 03:08:33;;;;;;;11.10;7.83;;;11.70;45.60;;;;;;7372867;19;20406;-40
2022/03/29 03:11:03;;;;;;;9.80;7.10;;;11.70;46.20;;;;;;7365589;19;20375;-40
2022/03/29 03:13:35;;;;;;;12.77;7.17;;;11.60;46.40;;;;;;7372859;19;20421;-39
2022/03/29 03:16:07;;;;;;;10.80;7.40;;;11.50;46.60;;;;;;7369706;19;20496;-40
2022/03/29 03:18:37;;;;;;;12.37;8.00;;;11.50;46.50;;;;;;7375292;19;20955;-40
2022/03/29 03:21:09;;;;;;;12.77;8.10;;;11.40;46.00;;;;;;7369606;19;20491;-39
2022/03/29 03:23:44;;;;;;;10.40;8.13;;;11.40;46.30;;;;;;7370348;19;20935;-39
2022/03/29 03:26:15;;;;;;;10.33;7.37;;;11.40;47.00;;;;;;7372192;19;21415;-39
2022/03/29 03:28:45;;;;;;;10.57;7.50;;;11.30;47.00;;;;;;7373503;19;21370;-40
2022/03/29 03:31:16;;;;;;;10.90;7.40;;;11.30;47.20;;;;;;7362976;19;20383;-40
2022/03/29 03:33:46;;;;;;;9.17;7.27;;;11.30;47.80;;;;;;7371489;19;20348;-40
2022/03/29 03:36:15;;;;;;;14.90;8.20;;;11.20;47.50;;;;;;7374952;19;20372;-40
2022/03/29 03:38:47;;;;;;;11.60;7.20;;;11.20;47.10;;;;;;7371118;19;20896;-39
2022/03/29 03:41:16;;;;;;;11.50;7.20;;;11.10;47.50;;;;;;7368699;19;20368;-40
2022/03/29 03:43:46;;;;;;;8.63;6.50;;;11.20;47.70;;;;;;7355191;19;21028;-39
2022/03/29 03:46:15;;;;;;;12.77;7.37;;;11.30;47.20;;;;;;7372727;19;20926;-40
2022/03/29 03:48:47;;;;;;;10.47;7.77;;;11.30;47.30;;;;;;7371259;19;20384;-40
2022/03/29 03:51:17;;;;;;;13.40;7.90;;;11.40;47.00;;;;;;7373768;19;20370;-40
2022/03/29 03:53:51;;;;;;;12.33;8.03;;;11.50;46.60;;;;;;7367436;19;20379;-40
2022/03/29 03:56:20;;;;;;;13.67;8.67;;;11.50;46.30;;;;;;7367691;19;20969;-40
2022/03/29 03:58:52;;;;;;;17.87;9.40;;;11.50;45.50;;;;;;7367528;19;20934;-40
2022/03/29 04:01:23;;;;;;;17.20;8.67;;;11.50;45.50;;;;;;7370793;19;20391;-40
2022/03/29 04:03:54;;;;;;;17.63;9.57;;;11.50;45.40;;;;;;7375063;19;20363;-40
2022/03/29 04:06:24;;;;;;;13.87;8.83;;;11.40;45.20;;;;;;7367723;19;20444;-40
2022/03/29 04:08:56;;;;;;;18.27;8.83;;;11.40;45.40;;;;;;7371480;19;20376;-40
2022/03/29 04:11:26;;;;;;;12.37;9.17;;;11.30;45.50;;;;;;7370186;19;20376;-40
2022/03/29 04:13:56;;;;;;;9.90;7.80;;;11.20;45.60;;;;;;7371093;19;20383;-39
2022/03/29 04:16:25;;;;;;;13.27;9.10;;;11.10;46.10;;;;;;7369974;19;20400;-40
2022/03/29 04:18:55;;;;;;;16.37;8.67;;;11.00;46.30;;;;;;7372028;19;20907;-40
2022/03/29 04:21:24;;;;;;;11.60;8.67;;;10.90;46.90;;;;;;7371709;19;21192;-40
2022/03/29 04:23:56;;;;;;;13.50;10.03;;;10.80;47.10;;;;;;7372258;19;20352;-40
2022/03/29 04:26:26;;;;;;;13.80;9.03;;;10.80;47.40;;;;;;7366219;19;20352;-39
2022/03/29 04:28:55;;;;;;;12.70;8.30;;;10.50;48.30;;;;;;7371982;19;20391;-39
2022/03/29 04:31:30;;;;;;;15.60;9.00;;;10.40;48.60;;;;;;7369389;19;20421;-39
2022/03/29 04:34:00;;;;;;;14.33;8.63;;;10.40;48.80;;;;;;7363797;19;20685;-39
2022/03/29 04:36:30;;;;;;;14.57;8.83;;;10.50;48.90;;;;;;7358609;19;20355;-40
2022/03/29 04:39:02;;;;;;;13.23;8.33;;;10.40;50.20;;;;;;7359511;19;20372;-40
2022/03/29 04:41:31;;;;;;;11.67;8.60;;;10.30;49.40;;;;;;7364615;19;20368;-39
2022/03/29 04:44:01;;;;;;;17.50;8.87;;;10.00;49.70;;;;;;7371541;19;20364;-42
2022/03/29 04:46:31;;;;;;;12.90;9.23;;;9.70;51.30;;;;;;7363512;19;20380;-40
2022/03/29 04:49:00;;;;;;;18.53;11.00;;;9.70;51.20;;;;;;7373834;19;20360;-41
2022/03/29 04:51:32;;;;;;;12.27;8.77;;;9.80;50.80;;;;;;7362303;19;20347;-41
2022/03/29 04:54:06;;;;;;;15.37;9.43;;;9.90;50.50;;;;;;7373082;19;20355;-41
2022/03/29 04:56:38;;;;;;;19.03;9.60;;;10.00;49.30;;;;;;7370044;19;21179;-41
2022/03/29 04:59:11;;;;;;;12.00;8.60;;;10.00;49.30;;;;;;7365907;19;20436;-41
2022/03/29 05:01:40;;;;;;;12.50;8.27;;;10.10;49.40;;;;;;7367837;19;20832;-41
2022/03/29 05:04:11;;;;;;;13.67;8.57;;;10.20;49.30;;;;;;7367612;19;20878;-41
2022/03/29 05:06:43;;;;;;;15.53;9.30;;;10.30;49.10;;;;;;7365046;19;20374;-41
2022/03/29 05:09:15;;;;;;;12.73;9.50;;;10.40;49.00;;;;;;7370114;19;20483;-41
2022/03/29 05:11:47;;;;;;;13.87;9.53;;;10.40;49.00;;;;;;7357248;19;20369;-41
2022/03/29 05:14:19;;;;;;;14.57;9.80;;;10.40;49.20;;;;;;7368030;19;20351;-41
2022/03/29 05:16:50;;;;;;;15.40;9.97;;;10.40;49.10;;;;;;7363226;19;20395;-41
2022/03/29 05:19:22;;;;;;;15.67;10.10;;;10.40;49.10;;;;;;7372482;19;20463;-41
2022/03/29 05:21:56;;;;;;;13.77;9.00;;;10.50;49.40;;;;;;7362152;19;20786;-41
2022/03/29 05:24:31;;;;;;;15.50;8.90;;;10.60;49.50;;;;;;7365642;19;20420;-41
2022/03/29 05:27:00;;;;;;;17.60;8.90;;;10.50;49.50;;;;;;7359928;19;20768;-41
2022/03/29 05:29:35;;;;;;;14.77;8.97;;;10.50;49.80;;;;;;7361647;19;20426;-41
2022/03/29 05:32:05;;;;;;;14.60;9.30;;;10.50;49.90;;;;;;7351516;19;20433;-41
2022/03/29 05:34:39;;;;;;;14.60;9.97;;;10.50;49.50;;;;;;7378346;19;20458;-41
2022/03/29 05:37:08;;;;;;;15.47;9.40;;;10.40;49.80;;;;;;7373270;19;20363;-41
2022/03/29 05:39:43;;;;;;;15.30;9.83;;;10.40;50.10;;;;;;7380716;19;20351;-42
2022/03/29 05:42:15;;;;;;;22.03;9.23;;;10.40;50.10;;;;;;7381386;19;20698;-42
2022/03/29 05:44:44;;;;;;;15.07;9.07;;;10.50;50.30;;;;;;7379019;19;20367;-41
2022/03/29 05:49:58;;;;;;;15.83;10.23;;;10.30;50.60;;;;;;7376021;19;20432;-42
2022/03/29 05:52:28;;;;;;;15.53;9.53;;;10.40;50.40;;;;;;7378574;19;20376;-42
2022/03/29 05:55:01;;;;;;;15.00;9.17;;;10.50;50.50;;;;;;7381505;19;20347;-42
2022/03/29 05:57:32;;;;;;;15.00;9.20;;;10.60;50.40;;;;;;7377326;19;20981;-42
2022/03/29 06:00:02;;;;;;;13.90;9.40;;;10.70;50.30;;;;;;7377288;19;20432;-42
2022/03/29 06:02:33;;;;;;;16.67;8.83;;;10.70;49.80;;;;;;7378060;19;20363;-42
2022/03/29 06:05:03;;;;;;;23.93;10.23;;;10.90;49.50;;;;;;7367331;19;20419;-42
2022/03/29 06:07:33;;;;;;;18.20;10.40;;;11.10;49.30;;;;;;7378862;19;20387;-42
2022/03/29 06:10:06;;;;;;;16.40;11.23;;;11.20;49.00;;;;;;7379210;19;20359;-42
2022/03/29 06:12:41;;;;;;;15.70;11.20;;;11.40;48.70;;;;;;7376562;19;20368;-42
2022/03/29 06:15:12;;;;;;;17.40;9.77;;;11.60;48.20;;;;;;7377159;19;20368;-42
2022/03/29 06:17:44;;;;;;;17.73;11.17;;;11.60;47.20;;;;;;7378373;19;20435;-42
2022/03/29 06:20:16;;;;;;;16.00;9.87;;;11.70;47.70;;;;;;7372305;19;20782;-39
2022/03/29 06:22:48;;;;;;;16.67;10.10;;;11.70;48.10;;;;;;7381610;19;20379;-39
2022/03/29 06:25:22;;;;;;;18.43;10.37;;;11.70;48.20;;;;;;7376219;19;20981;-40
2022/03/29 06:27:54;;;;;;;27.77;10.80;;;11.70;47.80;;;;;;7379804;19;20369;-39
2022/03/29 06:30:26;;;;;;;14.90;9.80;;;11.70;47.80;;;;;;7375861;19;20371;-39
2022/03/29 06:32:56;;;;;;;19.40;10.93;;;11.60;47.60;;;;;;7378831;19;20368;-39
2022/03/29 06:35:27;;;;;;;17.50;9.73;;;11.70;47.40;;;;;;7378058;19;20368;-39
2022/03/29 06:37:58;;;;;;;12.93;9.87;;;11.80;46.90;;;;;;7378716;19;20388;-39
2022/03/29 06:40:31;;;;;;;24.20;11.00;;;11.90;47.20;;;;;;7378222;19;20359;-39
2022/03/29 06:43:01;;;;;;;16.13;10.70;;;12.10;47.20;;;;;;7379472;19;21024;-40
2022/03/29 06:45:31;;;;;;;17.43;9.40;;;12.20;46.60;;;;;;7375731;19;20376;-40
2022/03/29 06:48:01;;;;;;;17.37;10.53;;;12.30;46.10;;;;;;7377805;19;20878;-40
2022/03/29 06:50:31;;;;;;;13.37;9.90;;;12.40;45.90;;;;;;7378274;19;20368;-43
2022/03/29 06:53:04;;;;;;;17.50;9.97;;;12.50;45.80;;;;;;7377448;19;20468;-43
2022/03/29 06:55:36;;;;;;;16.83;9.97;;;12.60;45.40;;;;;;7378587;19;20369;-43
2022/03/29 06:58:08;;;;;;;19.80;11.07;;;12.80;45.70;;;;;;7375516;19;20937;-43
2022/03/29 07:00:39;;;;;;;26.83;12.00;;;13.00;44.90;;;;;;7376309;19;20367;-43
2022/03/29 07:03:10;;;;;;;21.83;13.20;;;13.10;44.40;;;;;;7377940;19;20933;-41
2022/03/29 07:05:42;;;;;;;18.47;11.30;;;13.30;43.70;;;;;;7372942;19;20372;-43
2022/03/29 07:08:16;;;;;;;17.80;11.73;;;13.30;43.60;;;;;;7378622;19;20423;-38
2022/03/29 07:13:31;;;;;;;27.73;12.60;;;13.40;43.10;;;;;;7377070;19;20375;-40
2022/03/29 07:16:00;;;;;;;24.77;12.27;;;13.50;43.00;;;;;;7376628;19;20392;-38
2022/03/29 07:18:30;;;;;;;20.13;10.97;;;13.60;42.80;;;;;;7371702;19;20395;-39
2022/03/29 07:20:59;;;;;;;20.77;11.70;;;13.70;43.10;;;;;;7374041;19;20831;-39
2022/03/29 07:23:29;;;;;;;17.67;11.80;;;13.80;42.40;;;;;;7374600;19;20984;-39
2022/03/29 07:26:01;;;;;;;22.10;12.50;;;13.90;42.90;;;;;;7376039;19;20368;-39
2022/03/29 07:28:35;;;;;;;31.13;13.13;;;14.00;42.60;;;;;;7372026;19;20399;-39
2022/03/29 07:31:05;;;;;;;20.20;12.37;;;14.10;42.00;;;;;;7379149;19;20376;-40
2022/03/29 07:33:35;;;;;;;27.30;15.50;;;14.10;41.90;;;;;;7377209;19;20934;-39
2022/03/29 07:36:07;;;;;;;21.80;12.37;;;14.30;41.70;;;;;;7378246;19;20408;-39
2022/03/29 07:38:36;;;;;;;24.20;13.00;;;14.40;41.40;;;;;;7372102;19;20388;-40
2022/03/29 07:41:11;;;;;;;24.23;13.87;;;14.50;41.50;;;;;;7378396;19;20933;-40
2022/03/29 07:43:41;;;;;;;23.57;13.13;;;14.80;41.00;;;;;;7378055;19;20389;-40
2022/03/29 07:46:10;;;;;;;18.20;12.10;;;14.80;40.50;;;;;;7374603;19;20364;-40
2022/03/29 07:48:40;;;;;;;25.33;13.70;;;14.90;40.10;;;;;;7373285;19;20369;-40
2022/03/29 07:51:11;;;;;;;18.97;12.23;;;14.90;39.90;;;;;;7376066;19;20391;-40
2022/03/29 07:53:41;;;;;;;26.00;12.30;;;15.00;40.00;;;;;;7373357;19;20406;-40
2022/03/29 07:56:13;;;;;;;19.43;12.33;;;15.00;39.90;;;;;;7372265;19;20821;-40
2022/03/29 07:58:42;;;;;;;21.37;13.13;;;15.10;40.10;;;;;;7365929;19;20848;-40
2022/03/29 08:01:14;;;;;;;20.77;13.50;;;15.30;39.70;;;;;;7377328;19;20399;-40
2022/03/29 08:03:46;;;;;;;22.33;13.17;;;15.30;39.50;;;;;;7368336;19;20360;-40
2022/03/29 08:06:15;;;;;;;17.43;12.47;;;15.40;39.20;;;;;;7374823;19;20378;-40
2022/03/29 08:08:47;;;;;;;21.20;12.80;;;15.70;38.90;;;;;;7372090;19;20371;-39
2022/03/29 08:11:22;;;;;;;20.80;13.20;;;15.80;38.70;;;;;;7371022;19;21033;-40
2022/03/29 08:13:54;;;;;;;20.57;13.40;;;15.80;38.60;;;;;;7376709;19;20742;-40
2022/03/29 08:16:27;;;;;;;19.20;12.63;;;16.00;38.40;;;;;;7375946;19;20380;-39
2022/03/29 08:18:59;;;;;;;26.13;15.57;;;16.10;38.10;;;;;;7368286;19;20372;-40
2022/03/29 08:24:13;;;;;;;21.23;13.83;;;16.50;37.90;;;;;;7371022;19;20374;-39
2022/03/29 08:26:45;;;;;;;18.93;12.57;;;16.70;37.40;;;;;;7374087;19;20773;-40
2022/03/29 08:29:18;;;;;;;22.23;17.33;;;16.90;37.40;;;;;;7373658;19;20429;-40
2022/03/29 08:31:49;;;;;;;19.47;13.60;;;17.10;37.50;;;;;;7370949;19;20464;-40
2022/03/29 08:34:19;;;;;;;18.17;13.80;;;17.30;37.10;;;;;;7373924;19;20803;-40
2022/03/29 08:36:52;;;;;;;24.03;14.77;;;17.50;36.00;;;;;;7376739;19;20372;-40
2022/03/29 08:39:21;;;;;;;19.70;13.33;;;17.70;35.60;;;;;;7376847;19;20380;-41
2022/03/29 08:42:04;;;;;;;20.23;13.50;;;17.90;35.40;;;;;;7376700;19;20902;-39
2022/03/29 08:44:37;;;;;;;27.07;13.33;;;17.90;35.10;;;;;;7377066;19;20421;-41
2022/03/29 08:47:10;;;;;;;18.53;13.07;;;17.90;35.10;;;;;;7372455;19;20914;-39
2022/03/29 08:49:40;;;;;;;22.53;13.83;;;17.80;35.00;;;;;;7377244;19;20380;-39
2022/03/29 08:52:12;;;;;;;21.37;13.07;;;17.70;35.50;;;;;;7377102;19;20380;-39
2022/03/29 08:54:44;;;;;;;22.60;14.53;;;17.60;35.40;;;;;;7374581;19;20933;-39
2022/03/29 08:57:20;;;;;;;23.23;13.27;;;17.50;35.10;;;;;;7379070;19;20441;-39
2022/03/29 08:59:52;;;;;;;16.97;12.50;;;17.50;35.60;;;;;;7374561;19;20435;-39
2022/03/29 09:02:25;;;;;;;21.13;12.97;;;17.70;35.50;;;;;;7371951;19;20376;-41
2022/03/29 09:05:12;;;;;;;22.53;13.47;;;17.70;35.10;;;;;;7370588;19;21156;-38
2022/03/29 09:07:51;;;;;;;20.93;13.20;;;18.00;34.70;;;;;;7382210;19;20376;-39
2022/03/29 09:10:26;;;;;;;15.00;12.70;;;18.30;34.50;;;;;;7379503;19;20386;-39
2022/03/29 09:13:16;;;;;;;20.87;13.60;;;18.90;34.00;;;;;;7380839;19;20944;-39
2022/03/29 09:15:49;;;;;;;21.90;12.40;;;19.80;33.40;;;;;;7381875;19;20444;-39
2022/03/29 09:18:21;;;;;;;26.43;14.00;;;20.40;32.90;;;;;;7380738;19;20376;-39
2022/03/29 09:21:11;;;;;;;18.50;14.53;;;20.60;31.30;;;;;;7381165;19;20383;-39
2022/03/29 09:23:41;;;;;;;17.80;13.10;;;20.70;30.80;;;;;;7380112;19;20368;-39
2022/03/29 09:26:28;;;;;;;17.40;13.80;;;20.70;30.30;;;;;;7383256;19;20720;-39
2022/03/29 09:29:00;;;;;;;21.73;13.60;;;21.20;30.40;;;;;;7382227;19;20387;-39
2022/03/29 09:31:31;;;;;;;22.40;12.83;;;21.60;30.00;;;;;;7380313;19;20391;-41
2022/03/29 09:34:17;;;;;;;19.57;13.67;;;21.70;29.40;;;;;;7381407;19;20372;-42
2022/03/29 09:36:49;;;;;;;18.67;11.77;;;22.30;29.20;;;;;;7382126;19;20403;-44
2022/03/29 09:39:35;;;;;;;18.80;12.57;;;22.70;28.30;;;;;;7378564;19;20376;-43
2022/03/29 09:42:07;;;;;;;19.30;13.77;;;23.10;27.80;;;;;;7380766;19;20395;-44
2022/03/29 09:44:46;;;;;;;17.57;12.57;;;23.50;27.20;;;;;;7375648;19;20376;-44
2022/03/29 09:47:20;;;;;;;21.13;12.77;;;24.10;27.40;;;;;;7382489;19;20998;-44
2022/03/29 09:49:55;;;;;;;18.47;13.17;;;24.60;26.30;;;;;;7374425;19;20371;-44
2022/03/29 09:52:27;;;;;;;15.37;12.57;;;25.00;25.60;;;;;;7378598;19;20372;-43
2022/03/29 09:55:09;;;;;;;21.13;13.50;;;25.30;25.40;;;;;;7377126;19;20383;-45
2022/03/29 09:57:40;;;;;;;18.80;13.83;;;25.50;24.70;;;;;;7382733;19;20914;-44
2022/03/29 10:00:15;;;;;;;18.60;13.53;;;25.70;24.80;;;;;;7376893;19;20436;-44
2022/03/29 10:02:45;;;;;;;14.10;12.00;;;25.90;24.50;;;;;;7382129;19;20752;-44
2022/03/29 10:05:21;;;;;;;15.87;11.57;;;25.80;24.20;;;;;;7382198;19;20392;-45
2022/03/29 10:10:46;;;;;;;16.33;10.60;;;25.90;24.40;;;;;;7378837;19;20379;-44
2022/03/29 10:13:23;;;;;;;15.90;11.60;;;25.80;24.30;;;;;;7381177;19;20372;-44
2022/03/29 10:15:56;;;;;;;18.30;12.03;;;25.90;24.40;;;;;;7375926;19;20403;-44
2022/03/29 10:18:31;;;;;;;18.20;13.77;;;26.00;24.30;;;;;;7377795;19;20435;-44
2022/03/29 10:21:04;;;;;;;16.10;12.77;;;26.30;23.80;;;;;;7375734;19;20372;-44
2022/03/29 10:23:34;;;;;;;16.47;12.67;;;26.20;24.10;;;;;;7377376;19;20380;-44
2022/03/29 10:26:07;;;;;;;18.17;12.50;;;25.90;24.10;;;;;;7377594;19;20383;-44
2022/03/29 10:28:39;;;;;;;16.63;11.33;;;25.80;24.10;;;;;;7379084;19;20380;-44
2022/03/29 10:31:33;;;;;;;19.10;12.00;;;26.10;24.20;;;;;;7374717;19;20376;-44
2022/03/29 10:34:13;;;;;;;16.83;12.53;;;26.30;23.70;;;;;;7378641;19;20833;-44
2022/03/29 10:37:10;;;;;;;18.17;12.67;;;26.30;23.40;;;;;;7371941;19;20395;-44
2022/03/29 10:39:46;;;;;;;18.27;13.20;;;26.00;23.60;;;;;;7372298;19;20407;-44
2022/03/29 10:42:36;;;;;;;16.80;12.10;;;25.90;23.70;;;;;;7382582;19;20448;-44
2022/03/29 10:45:17;;;;;;;13.60;12.03;;;26.30;23.40;;;;;;7378460;19;21777;-45
2022/03/29 10:48:09;;;;;;;13.27;10.57;;;25.90;23.60;;;;;;7374882;19;20913;-44
2022/03/29 10:50:58;;;;;;;16.23;13.10;;;25.90;23.70;;;;;;7372341;19;20360;-44
2022/03/29 10:53:30;;;;;;;15.90;11.10;;;26.00;23.40;;;;;;7378452;19;21340;-45
2022/03/29 10:56:23;;;;;;;14.47;12.23;;;25.90;23.70;;;;;;7366789;19;21977;-45
2022/03/29 10:59:15;;;;;;;16.00;13.60;;;25.50;23.90;;;;;;7360277;19;20492;-44
2022/03/29 11:01:47;;;;;;;17.03;12.17;;;25.10;24.60;;;;;;7370944;19;20369;-45
2022/03/29 11:04:27;;;;;;;16.50;12.50;;;24.90;25.10;;;;;;7368674;19;20913;-44
2022/03/29 11:07:17;;;;;;;15.47;11.57;;;24.90;25.20;;;;;;7368463;19;20740;-45
2022/03/29 11:09:49;;;;;;;20.43;13.47;;;25.20;25.10;;;;;;7363448;19;20376;-44
2022/03/29 11:12:41;;;;;;;17.27;13.83;;;25.60;24.50;;;;;;7368276;19;20966;-44
2022/03/29 11:15:43;;;;;;;24.40;16.70;;;25.80;24.10;;;;;;7375008;19;20483;-44
2022/03/29 11:18:51;;;;;;;19.33;13.67;;;26.00;24.30;;;;;;7370400;19;20426;-44
2022/03/29 11:21:40;;;;;;;28.27;14.90;;;25.80;23.90;;;;;;7372125;19;20388;-44
2022/03/29 11:24:13;;;;;;;18.07;12.80;;;24.70;24.80;;;;;;7376290;19;20368;-44
2022/03/29 11:26:58;;;;;;;19.23;13.60;;;24.90;25.00;;;;;;7361154;19;20368;-46
2022/03/29 11:29:28;;;;;;;16.10;12.33;;;25.70;24.10;;;;;;7365356;19;20500;-45
2022/03/29 11:32:01;;;;;;;18.50;13.13;;;25.90;23.90;;;;;;7363484;19;20378;-44
2022/03/29 11:34:40;;;;;;;19.37;14.13;;;26.50;23.70;;;;;;7367601;19;20886;-46
2022/03/29 11:37:28;;;;;;;21.00;13.77;;;27.20;23.40;;;;;;7378251;19;20817;-44
2022/03/29 11:40:02;;;;;;;22.47;14.17;;;27.90;22.30;;;;;;7365672;19;20974;-44
2022/03/29 11:42:53;;;;;;;19.07;13.30;;;28.40;22.00;;;;;;7362893;19;20428;-44
2022/03/29 11:45:28;;;;;;;16.53;14.40;;;29.10;21.40;;;;;;7370201;19;20371;-44
2022/03/29 11:48:07;;;;;;;17.37;12.90;;;29.40;21.10;;;;;;7379665;19;20375;-44
2022/03/29 11:50:41;;;;;;;20.73;14.63;;;29.10;20.90;;;;;;7380071;19;20894;-44
2022/03/29 11:53:24;;;;;;;17.60;13.40;;;28.50;21.30;;;;;;7374202;19;20383;-44
2022/03/29 11:56:03;;;;;;;22.90;14.20;;;28.30;21.70;;;;;;7369619;19;20385;-45
2022/03/29 11:58:36;;;;;;;16.27;13.50;;;28.50;21.60;;;;;;7370730;19;20510;-45
2022/03/29 12:01:08;;;;;;;18.47;14.03;;;28.30;21.80;;;;;;7369846;19;20422;-45
2022/03/29 12:03:41;;;;;;;21.03;15.97;;;27.70;22.20;;;;;;7371634;19;21406;-45
2022/03/29 12:06:17;;;;;;;23.80;15.03;;;26.70;23.00;;;;;;7381995;19;20384;-45
2022/03/29 12:08:52;;;;;;;25.73;13.80;;;26.40;23.40;;;;;;7380154;19;20384;-44
2022/03/29 12:11:27;;;;;;;20.60;14.97;;;26.40;23.40;;;;;;7375035;19;20400;-44
2022/03/29 12:14:05;;;;;;;24.73;14.40;;;26.00;23.50;;;;;;7377738;19;20372;-45
2022/03/29 12:16:38;;;;;;;18.43;13.37;;;25.90;23.60;;;;;;7379744;19;20974;-45
2022/03/29 12:19:11;;;;;;;20.03;13.70;;;25.50;24.00;;;;;;7363696;19;20384;-45
2022/03/29 12:21:44;;;;;;;19.60;14.40;;;25.60;24.40;;;;;;7374595;19;20410;-45
2022/03/29 12:24:18;;;;;;;20.30;14.27;;;25.60;24.00;;;;;;7374910;19;20380;-45
2022/03/29 12:26:51;;;;;;;17.00;14.37;;;25.60;23.80;;;;;;7360294;19;20621;-45
2022/03/29 12:29:23;;;;;;;21.33;14.17;;;25.20;24.40;;;;;;7373611;19;20978;-41
2022/03/29 12:31:54;;;;;;;19.10;13.73;;;25.20;24.60;;;;;;7375390;19;20379;-42
2022/03/29 12:34:28;;;;;;;18.20;14.57;;;25.10;24.50;;;;;;7374254;19;20459;-41
2022/03/29 12:37:01;;;;;;;20.93;14.37;;;25.20;25.10;;;;;;7368389;19;20392;-41
2022/03/29 12:39:38;;;;;;;20.43;15.27;;;25.40;24.40;;;;;;7369417;19;20364;-45
2022/03/29 12:42:12;;;;;;;21.03;15.20;;;25.30;24.60;;;;;;7373913;19;20916;-45
2022/03/29 12:44:47;;;;;;;18.90;14.30;;;25.40;24.60;;;;;;7373550;19;20841;-45
2022/03/29 12:47:18;;;;;;;21.50;14.17;;;25.20;24.60;;;;;;7375551;19;20466;-45
2022/03/29 12:49:49;;;;;;;17.63;13.50;;;25.30;24.60;;;;;;7368847;19;20479;-45
2022/03/29 12:52:19;;;;;;;19.30;14.80;;;25.20;24.50;;;;;;7375845;19;20380;-45
2022/03/29 12:54:53;;;;;;;20.20;15.13;;;25.00;24.90;;;;;;7370403;19;20447;-45
2022/03/29 12:57:23;;;;;;;17.37;13.27;;;25.00;25.00;;;;;;7354313;19;20417;-45
2022/03/29 13:00:06;;;;;;;26.63;15.37;;;24.60;24.70;;;;;;7372254;19;20436;-45
2022/03/29 13:02:39;;;;;;;26.33;13.80;;;24.40;24.90;;;;;;7373949;19;20368;-45
2022/03/29 13:05:09;;;;;;;22.70;15.03;;;24.10;25.40;;;;;;7371961;19;20409;-45
2022/03/29 13:07:44;;;;;;;21.53;14.57;;;23.80;25.70;;;;;;7370196;19;20376;-44
2022/03/29 13:10:18;;;;;;;19.50;14.90;;;23.70;25.50;;;;;;7372224;19;20443;-44
2022/03/29 13:12:55;;;;;;;20.90;14.67;;;23.70;25.80;;;;;;7369803;19;20910;-44
2022/03/29 13:15:42;;;;;;;19.60;14.07;;;23.50;26.20;;;;;;7369725;19;20387;-44
2022/03/29 13:18:23;;;;;;;17.80;13.17;;;23.70;25.80;;;;;;7345409;19;21973;-44